Time;durP1;ratioP1;P1;durP2;ratioP2;P2;SDS_P1;SDS_P2;PMS_P1;PMS_P2;Temp;Humidity;BMP_temperature;BMP_pressure;BME280_temperature;BME280_humidity;BME280_pressure;Samples;Min_cycle;Max_cycle;Signal;HPM_P1;HPM_P2
2023/06/15 00:02:23;;;;;;;4.50;2.75;;;16.70;96.60;;;;;;5007195;28;20766;-57
2023/06/15 00:04:51;;;;;;;3.90;2.93;;;16.80;96.10;;;;;;5016430;28;20728;-58
2023/06/15 00:07:18;;;;;;;3.37;2.70;;;16.70;97.20;;;;;;5035835;28;20193;-57
2023/06/15 00:09:45;;;;;;;4.43;2.93;;;16.50;97.00;;;;;;5001732;28;20208;-57
2023/06/15 00:12:12;;;;;;;2.83;2.53;;;16.50;97.30;;;;;;5003817;28;20219;-56
2023/06/15 00:14:39;;;;;;;3.10;2.47;;;16.60;97.90;;;;;;5005207;28;20695;-57
2023/06/15 00:17:08;;;;;;;3.42;2.80;;;16.80;97.30;;;;;;5017919;28;20193;-60
2023/06/15 00:19:36;;;;;;;6.93;2.40;;;17.00;97.30;;;;;;5019919;28;20669;-57
2023/06/15 00:22:04;;;;;;;8.93;3.42;;;17.10;96.90;;;;;;5003733;28;20255;-57
2023/06/15 00:24:31;;;;;;;2.85;2.20;;;17.20;97.00;;;;;;5007452;28;20193;-58
2023/06/15 00:26:58;;;;;;;3.60;2.58;;;17.20;97.40;;;;;;4989234;28;21102;-57
2023/06/15 00:29:25;;;;;;;5.80;3.08;;;17.20;97.60;;;;;;5006967;28;20220;-57
2023/06/15 00:31:52;;;;;;;5.90;3.17;;;17.20;97.40;;;;;;5022049;28;20201;-57
2023/06/15 00:34:20;;;;;;;5.47;2.75;;;17.10;97.10;;;;;;5005553;28;20205;-57
2023/06/15 00:36:48;;;;;;;2.58;2.38;;;17.10;97.70;;;;;;5020699;28;20528;-57
2023/06/15 00:39:15;;;;;;;3.72;2.70;;;16.90;97.60;;;;;;5017369;28;20272;-58
2023/06/15 00:41:43;;;;;;;4.05;3.10;;;16.80;97.50;;;;;;5020913;28;20207;-57
2023/06/15 00:44:10;;;;;;;4.18;2.70;;;16.60;98.40;;;;;;5005809;28;20201;-56
2023/06/15 00:46:38;;;;;;;3.50;2.40;;;16.60;98.20;;;;;;5020839;28;20572;-58
2023/06/15 00:49:06;;;;;;;3.60;2.53;;;17.10;99.90;;;;;;5006418;28;20228;-57
2023/06/15 00:51:38;;;;;;;3.58;2.50;;;17.10;99.90;;;;;;5021858;28;20199;-57
2023/06/15 00:54:07;;;;;;;4.63;3.13;;;17.30;98.70;;;;;;5005747;28;20680;-57
2023/06/15 00:56:35;;;;;;;3.20;2.67;;;17.10;98.70;;;;;;5004909;28;20189;-57
2023/06/15 00:59:02;;;;;;;3.75;2.83;;;16.90;98.30;;;;;;5007766;28;20271;-58
2023/06/15 01:01:29;;;;;;;5.57;2.50;;;17.00;98.50;;;;;;5004963;28;20200;-58
2023/06/15 01:03:59;;;;;;;3.53;2.70;;;17.70;97.90;;;;;;4995432;28;20669;-57
2023/06/15 01:06:31;;;;;;;3.40;3.05;;;17.30;98.20;;;;;;4986381;28;20577;-57
2023/06/15 01:09:02;;;;;;;4.03;3.05;;;17.10;98.70;;;;;;5019383;28;20696;-57
2023/06/15 01:11:34;;;;;;;5.53;3.25;;;17.00;98.30;;;;;;5019724;28;20607;-58
2023/06/15 01:14:03;;;;;;;4.55;3.22;;;16.80;98.30;;;;;;4997812;28;20214;-57
2023/06/15 01:16:40;;;;;;;7.93;3.23;;;16.50;98.50;;;;;;5019124;28;20189;-57
2023/06/15 01:19:29;;;;;;;3.37;2.77;;;16.00;98.40;;;;;;5003175;28;20196;-57
2023/06/15 01:22:07;;;;;;;3.97;3.00;;;15.70;99.60;;;;;;5019993;28;20189;-58
2023/06/15 01:24:38;;;;;;;3.83;2.93;;;15.20;99.90;;;;;;5005402;28;20213;-57
2023/06/15 01:27:09;;;;;;;5.93;4.03;;;14.90;99.90;;;;;;5001933;28;20205;-57
2023/06/15 01:29:36;;;;;;;4.50;3.10;;;14.90;99.90;;;;;;5022403;28;20204;-56
2023/06/15 01:32:05;;;;;;;3.83;3.10;;;14.80;99.90;;;;;;5009745;28;20280;-57
2023/06/15 01:34:32;;;;;;;6.53;2.93;;;15.10;99.90;;;;;;5004000;28;20224;-57
2023/06/15 01:36:59;;;;;;;3.27;2.63;;;15.20;99.90;;;;;;5020698;28;20742;-58
2023/06/15 01:39:26;;;;;;;3.53;3.00;;;15.30;99.90;;;;;;5003797;28;20192;-56
2023/06/15 01:41:55;;;;;;;4.00;3.00;;;15.50;99.90;;;;;;5020047;28;20251;-57
2023/06/15 01:44:23;;;;;;;2.87;2.53;;;15.60;99.90;;;;;;5021120;28;20213;-57
2023/06/15 01:46:51;;;;;;;3.77;3.30;;;15.80;99.90;;;;;;5006457;28;20200;-57
2023/06/15 01:49:19;;;;;;;4.57;3.20;;;15.70;99.90;;;;;;5018356;28;20656;-56
2023/06/15 01:51:46;;;;;;;4.53;3.73;;;15.30;99.90;;;;;;5006192;28;20288;-57
2023/06/15 01:54:14;;;;;;;3.87;3.37;;;14.90;99.90;;;;;;5003332;28;20221;-57
2023/06/15 01:56:41;;;;;;;5.63;3.77;;;14.60;99.90;;;;;;5022291;28;20193;-57
2023/06/15 01:59:09;;;;;;;3.33;3.03;;;14.50;99.90;;;;;;5038749;28;20193;-56
2023/06/15 02:01:36;;;;;;;8.50;3.30;;;14.40;99.90;;;;;;5019405;28;20669;-56
2023/06/15 02:04:03;;;;;;;4.97;3.03;;;14.30;99.90;;;;;;4990298;28;20798;-57
2023/06/15 02:06:30;;;;;;;8.10;3.77;;;14.10;99.90;;;;;;5022105;28;20251;-56
2023/06/15 02:08:57;;;;;;;5.37;3.53;;;14.10;99.90;;;;;;5006617;28;20728;-56
2023/06/15 02:11:25;;;;;;;4.53;3.27;;;14.40;99.90;;;;;;5002603;28;20244;-58
2023/06/15 02:13:52;;;;;;;7.47;3.80;;;14.50;99.90;;;;;;5005169;28;20213;-58
2023/06/15 02:16:20;;;;;;;6.30;3.27;;;14.60;99.90;;;;;;5006082;28;20292;-57
2023/06/15 02:18:47;;;;;;;4.30;3.10;;;14.80;99.90;;;;;;5005474;28;20200;-59
2023/06/15 02:21:14;;;;;;;5.50;3.30;;;14.80;99.90;;;;;;4988616;28;20206;-59
2023/06/15 02:23:42;;;;;;;3.90;3.23;;;14.30;99.90;;;;;;5004873;28;20288;-58
2023/06/15 02:26:09;;;;;;;7.00;3.50;;;14.20;99.90;;;;;;5010867;28;20189;-58
2023/06/15 02:28:36;;;;;;;4.77;3.70;;;13.80;99.90;;;;;;5006791;28;20205;-62
2023/06/15 02:31:03;;;;;;;3.80;3.00;;;13.50;99.90;;;;;;5022664;28;20287;-62
2023/06/15 02:33:32;;;;;;;3.93;3.40;;;13.50;99.90;;;;;;5023161;28;20854;-64
2023/06/15 02:35:59;;;;;;;11.47;4.50;;;13.80;99.90;;;;;;5007623;28;20201;-63
2023/06/15 02:38:26;;;;;;;5.80;3.63;;;13.90;99.90;;;;;;5008311;28;20737;-66
2023/06/15 02:40:53;;;;;;;6.77;4.10;;;13.90;99.90;;;;;;5007407;28;20185;-62
2023/06/15 02:43:21;;;;;;;4.27;3.33;;;14.10;99.90;;;;;;5010271;28;20196;-62
2023/06/15 02:45:50;;;;;;;5.27;3.87;;;14.20;99.90;;;;;;5004888;28;20212;-61
2023/06/15 02:48:18;;;;;;;11.10;4.13;;;14.10;99.90;;;;;;5007450;28;20447;-62
2023/06/15 02:50:45;;;;;;;3.90;3.43;;;14.30;99.90;;;;;;5007757;28;20288;-62
2023/06/15 02:53:20;;;;;;;4.40;3.87;;;14.40;99.90;;;;;;5024829;28;20306;-61
2023/06/15 02:55:51;;;;;;;4.27;3.40;;;14.60;99.90;;;;;;4991389;28;20217;-62
2023/06/15 02:58:20;;;;;;;5.33;3.60;;;14.60;99.90;;;;;;5024046;28;20569;-62
2023/06/15 03:00:56;;;;;;;5.80;3.33;;;14.60;99.90;;;;;;5016890;28;20198;-61
2023/06/15 03:03:46;;;;;;;3.87;2.93;;;14.60;99.90;;;;;;5001385;28;20383;-65
2023/06/15 03:06:16;;;;;;;5.47;3.40;;;15.00;99.90;;;;;;5022003;28;20212;-61
2023/06/15 03:08:44;;;;;;;3.80;2.80;;;15.70;99.90;;;;;;5022590;28;20221;-61
2023/06/15 03:11:18;;;;;;;7.03;3.67;;;16.10;99.90;;;;;;5022981;28;20227;-65
2023/06/15 03:13:45;;;;;;;6.80;3.53;;;16.10;99.90;;;;;;5006725;28;20650;-61
2023/06/15 03:16:15;;;;;;;4.67;3.20;;;16.20;99.90;;;;;;5024175;28;20634;-61
2023/06/15 03:18:46;;;;;;;4.47;3.30;;;16.30;99.90;;;;;;5007254;28;20201;-61
2023/06/15 03:21:14;;;;;;;6.60;2.93;;;16.30;99.90;;;;;;5005252;28;20195;-61
2023/06/15 03:23:44;;;;;;;3.70;2.77;;;16.00;99.90;;;;;;5007501;28;20197;-61
2023/06/15 03:26:12;;;;;;;3.63;2.90;;;16.00;99.90;;;;;;5021959;28;20743;-60
2023/06/15 03:28:39;;;;;;;3.30;2.90;;;16.10;99.90;;;;;;5023620;28;20221;-60
2023/06/15 03:31:10;;;;;;;4.27;3.30;;;16.20;99.90;;;;;;5020207;28;20347;-59
2023/06/15 03:33:37;;;;;;;4.10;2.60;;;16.30;99.90;;;;;;5007518;28;20514;-61
2023/06/15 03:36:04;;;;;;;8.73;3.17;;;16.30;99.90;;;;;;5005654;28;20236;-61
2023/06/15 03:38:34;;;;;;;4.20;3.30;;;16.30;99.90;;;;;;5006413;28;20208;-60
2023/06/15 03:41:01;;;;;;;4.85;3.30;;;16.00;99.90;;;;;;5006835;28;20671;-60
2023/06/15 03:43:29;;;;;;;4.15;3.10;;;15.80;99.90;;;;;;5019406;28;20224;-62
2023/06/15 03:45:56;;;;;;;5.03;3.45;;;15.60;99.90;;;;;;5005756;28;20208;-60
2023/06/15 03:48:24;;;;;;;3.78;2.90;;;15.70;99.90;;;;;;4991545;28;20220;-59
2023/06/15 03:50:51;;;;;;;4.30;3.10;;;15.60;99.90;;;;;;5021786;28;20201;-62
2023/06/15 03:53:18;;;;;;;3.70;3.00;;;15.70;99.90;;;;;;5018479;28;20197;-55
2023/06/15 03:55:46;;;;;;;4.43;3.20;;;16.00;99.90;;;;;;5021973;28;20628;-54
2023/06/15 03:58:14;;;;;;;5.10;3.13;;;16.40;99.90;;;;;;5006098;28;20192;-55
2023/06/15 04:00:43;;;;;;;5.30;3.58;;;16.80;99.90;;;;;;4989756;28;20197;-55
2023/06/15 04:03:10;;;;;;;4.00;3.15;;;17.10;99.90;;;;;;5004466;28;20201;-55
2023/06/15 04:05:38;;;;;;;2.85;2.60;;;17.50;99.90;;;;;;5000215;28;20864;-54
2023/06/15 04:08:08;;;;;;;5.20;3.05;;;17.70;99.90;;;;;;5019381;28;20277;-55
2023/06/15 04:10:36;;;;;;;6.03;3.80;;;17.90;99.90;;;;;;5020928;28;20201;-55
2023/06/15 04:13:05;;;;;;;4.70;3.17;;;18.10;99.90;;;;;;4998539;28;20197;-56
2023/06/15 04:15:32;;;;;;;6.32;3.35;;;18.50;99.90;;;;;;5005037;28;20215;-56
2023/06/15 04:18:00;;;;;;;4.20;3.05;;;18.50;99.90;;;;;;4988148;28;20273;-59
2023/06/15 04:20:28;;;;;;;5.00;3.35;;;17.10;99.90;;;;;;5005109;28;20193;-59
2023/06/15 04:22:59;;;;;;;5.22;3.58;;;17.10;99.90;;;;;;5002202;28;20210;-59
2023/06/15 04:25:27;;;;;;;6.30;3.60;;;17.90;99.90;;;;;;5023257;28;20299;-58
2023/06/15 04:27:55;;;;;;;5.70;3.70;;;18.60;99.90;;;;;;5007235;28;20559;-65
2023/06/15 04:30:26;;;;;;;7.05;3.08;;;18.70;99.90;;;;;;5005789;28;20205;-60
2023/06/15 04:32:59;;;;;;;8.40;3.40;;;19.00;99.90;;;;;;4999291;28;20201;-59
2023/06/15 04:35:34;;;;;;;4.13;3.20;;;19.30;99.90;;;;;;5002457;28;20299;-57
2023/06/15 04:38:07;;;;;;;3.47;3.05;;;19.70;99.90;;;;;;5020531;28;20308;-59
2023/06/15 04:40:34;;;;;;;4.25;3.22;;;20.00;99.90;;;;;;5005218;28;20208;-57
2023/06/15 04:43:02;;;;;;;3.50;2.90;;;20.60;99.90;;;;;;5016149;28;20189;-57
2023/06/15 04:45:30;;;;;;;3.60;3.15;;;21.20;99.90;;;;;;5002186;28;20634;-57
2023/06/15 04:47:58;;;;;;;4.53;3.03;;;21.70;99.90;;;;;;5001448;28;20560;-57
2023/06/15 04:50:25;;;;;;;5.15;3.22;;;21.60;99.90;;;;;;5002446;28;20273;-57
2023/06/15 04:52:53;;;;;;;7.13;3.63;;;20.80;99.90;;;;;;5018143;28;20268;-57
2023/06/15 04:55:20;;;;;;;4.78;3.80;;;21.40;99.90;;;;;;5003712;28;20271;-59
2023/06/15 04:57:48;;;;;;;8.75;3.50;;;21.60;99.90;;;;;;5019012;28;20244;-57
2023/06/15 05:00:16;;;;;;;6.80;3.55;;;21.80;99.90;;;;;;5020518;28;20284;-57
2023/06/15 05:02:48;;;;;;;4.35;3.30;;;22.30;99.90;;;;;;5004634;28;20193;-58
2023/06/15 05:05:16;;;;;;;6.82;3.92;;;22.50;99.90;;;;;;5004096;28;20235;-58
2023/06/15 05:07:44;;;;;;;6.90;4.15;;;21.20;98.10;;;;;;5020840;28;20240;-58
2023/06/15 05:10:11;;;;;;;4.00;3.60;;;20.10;99.40;;;;;;5002224;28;20740;-58
2023/06/15 05:12:38;;;;;;;7.10;3.83;;;19.70;99.70;;;;;;5004659;28;20216;-57
2023/06/15 05:15:06;;;;;;;9.18;3.67;;;19.00;99.40;;;;;;5021778;28;20219;-58
2023/06/15 05:17:33;;;;;;;4.88;3.30;;;19.00;99.90;;;;;;4989414;28;20197;-58
2023/06/15 05:20:00;;;;;;;6.32;3.67;;;19.90;99.90;;;;;;5002056;28;20375;-58
2023/06/15 05:22:27;;;;;;;6.20;4.35;;;20.40;99.90;;;;;;5000106;28;20195;-58
2023/06/15 05:24:55;;;;;;;9.32;3.80;;;20.70;99.90;;;;;;5004158;28;20196;-57
2023/06/15 05:27:22;;;;;;;3.53;3.00;;;22.70;99.90;;;;;;5018852;28;20270;-57
2023/06/15 05:29:50;;;;;;;5.95;3.35;;;23.80;99.90;;;;;;5018275;28;20211;-58
2023/06/15 05:32:17;;;;;;;4.40;3.13;;;25.00;99.50;;;;;;5000267;28;20304;-57
2023/06/15 05:34:45;;;;;;;5.05;3.53;;;25.00;99.30;;;;;;5002730;28;20745;-59
2023/06/15 05:37:12;;;;;;;5.30;3.38;;;24.90;98.80;;;;;;5001080;28;20641;-59
2023/06/15 05:39:40;;;;;;;6.78;3.53;;;25.80;97.90;;;;;;5013856;28;20200;-61
2023/06/15 05:42:10;;;;;;;12.05;3.25;;;26.80;97.00;;;;;;4998858;28;20612;-58
2023/06/15 05:44:41;;;;;;;4.60;3.40;;;27.70;97.40;;;;;;5007926;28;20645;-59
2023/06/15 05:47:08;;;;;;;5.60;3.75;;;28.60;95.30;;;;;;5003314;28;20200;-59
2023/06/15 05:49:38;;;;;;;4.63;3.05;;;29.00;94.50;;;;;;5003000;28;20271;-59
2023/06/15 05:52:06;;;;;;;5.65;3.38;;;29.30;94.00;;;;;;5003666;28;20220;-59
2023/06/15 05:54:34;;;;;;;10.45;3.67;;;29.90;92.80;;;;;;5021004;28;20526;-59
2023/06/15 05:57:02;;;;;;;5.07;3.60;;;30.70;91.10;;;;;;5018034;28;20689;-59
2023/06/15 05:59:29;;;;;;;5.82;4.45;;;31.10;90.70;;;;;;5021482;28;20224;-58
2023/06/15 06:02:02;;;;;;;6.00;3.85;;;27.10;87.00;;;;;;5024135;28;20243;-58
2023/06/15 06:04:33;;;;;;;4.53;3.78;;;26.90;92.10;;;;;;5021718;28;20221;-58
2023/06/15 06:07:05;;;;;;;3.88;2.80;;;26.60;91.20;;;;;;5006172;28;20200;-58
2023/06/15 06:09:34;;;;;;;5.40;3.85;;;28.90;91.40;;;;;;5007744;28;20224;-59
2023/06/15 06:12:02;;;;;;;6.78;3.72;;;28.60;90.00;;;;;;5023144;28;20609;-59
2023/06/15 06:14:29;;;;;;;5.28;3.25;;;28.80;90.40;;;;;;5001539;28;20264;-59
2023/06/15 06:16:56;;;;;;;10.15;4.40;;;29.40;91.00;;;;;;5005271;28;20501;-58
2023/06/15 06:19:23;;;;;;;9.07;4.22;;;28.60;83.30;;;;;;5008535;28;20185;-58
2023/06/15 06:21:50;;;;;;;8.68;4.68;;;27.50;86.50;;;;;;5000444;28;22687;-61
2023/06/15 06:24:18;;;;;;;5.35;4.07;;;26.70;90.40;;;;;;5013762;28;20197;-63
2023/06/15 06:26:49;;;;;;;5.50;4.32;;;26.10;88.40;;;;;;5002774;28;20199;-64
2023/06/15 06:29:16;;;;;;;8.63;3.38;;;28.40;91.10;;;;;;5003152;28;20644;-63
2023/06/15 06:31:43;;;;;;;10.70;4.72;;;31.00;90.90;;;;;;5000206;28;20735;-63
2023/06/15 06:34:10;;;;;;;6.82;4.05;;;32.50;86.60;;;;;;5000670;28;20275;-63
2023/06/15 06:36:39;;;;;;;8.88;4.20;;;32.90;84.00;;;;;;4993422;28;20236;-63
2023/06/15 06:39:06;;;;;;;6.32;4.10;;;33.40;81.70;;;;;;5005339;28;20193;-63
2023/06/15 06:41:33;;;;;;;9.95;4.60;;;34.00;79.30;;;;;;5004876;28;20217;-63
2023/06/15 06:44:00;;;;;;;7.53;3.90;;;34.70;76.80;;;;;;5007280;28;20272;-63
2023/06/15 06:46:27;;;;;;;12.43;5.43;;;34.80;75.70;;;;;;4999389;28;20295;-63
2023/06/15 06:48:54;;;;;;;7.93;4.40;;;34.70;74.30;;;;;;5004763;28;20665;-64
2023/06/15 06:51:21;;;;;;;6.85;4.00;;;34.10;73.60;;;;;;5006398;28;20207;-63
2023/06/15 06:53:48;;;;;;;10.38;4.28;;;33.50;73.00;;;;;;5020210;28;20245;-62
2023/06/15 06:56:15;;;;;;;8.27;3.88;;;34.50;74.20;;;;;;5015601;28;20205;-63
2023/06/15 06:58:42;;;;;;;7.95;4.38;;;35.10;72.10;;;;;;5027945;28;20204;-63
2023/06/15 07:01:10;;;;;;;6.65;3.88;;;35.70;70.70;;;;;;5004327;28;20189;-63
2023/06/15 07:03:39;;;;;;;6.00;3.88;;;36.70;69.70;;;;;;5003610;28;20519;-63
2023/06/15 07:06:06;;;;;;;9.05;3.90;;;37.60;68.10;;;;;;5005599;28;20704;-63
2023/06/15 07:08:33;;;;;;;9.65;4.05;;;37.70;68.20;;;;;;5002435;28;20224;-63
2023/06/15 07:11:01;;;;;;;5.13;3.42;;;38.20;63.70;;;;;;5003773;28;20927;-63
2023/06/15 07:13:28;;;;;;;9.02;3.58;;;38.50;62.20;;;;;;5019552;28;20196;-63
2023/06/15 07:15:57;;;;;;;7.88;4.15;;;38.80;62.40;;;;;;5004936;28;20207;-63
2023/06/15 07:18:25;;;;;;;5.85;3.63;;;39.10;61.90;;;;;;5004246;28;20181;-63
2023/06/15 07:20:55;;;;;;;6.47;3.75;;;36.90;57.10;;;;;;5001546;28;20196;-63
2023/06/15 07:23:23;;;;;;;8.25;3.70;;;36.00;60.20;;;;;;5026005;28;20299;-63
2023/06/15 07:25:52;;;;;;;7.20;3.80;;;36.40;59.30;;;;;;5006846;28;20891;-63
2023/06/15 07:28:20;;;;;;;8.32;4.38;;;37.10;63.00;;;;;;5006273;28;20829;-63
2023/06/15 07:30:51;;;;;;;7.85;3.83;;;34.30;57.20;;;;;;5007574;28;20272;-63
2023/06/15 07:33:18;;;;;;;7.90;4.07;;;35.70;57.20;;;;;;5004628;28;20258;-63
2023/06/15 07:35:45;;;;;;;6.32;3.63;;;34.80;57.00;;;;;;5018812;28;20804;-63
2023/06/15 07:38:14;;;;;;;6.95;3.58;;;35.60;53.90;;;;;;5022080;28;20197;-63
2023/06/15 07:40:41;;;;;;;7.25;3.67;;;35.00;57.10;;;;;;5006678;28;20197;-63
2023/06/15 07:43:10;;;;;;;9.00;3.35;;;34.80;58.80;;;;;;5007832;28;20541;-63
2023/06/15 07:45:37;;;;;;;10.38;3.75;;;36.00;56.80;;;;;;5003174;28;20204;-63
2023/06/15 07:48:05;;;;;;;8.85;4.22;;;37.40;56.50;;;;;;5005972;28;20200;-63
2023/06/15 07:50:32;;;;;;;5.10;3.38;;;35.50;50.10;;;;;;5003762;28;20510;-63
2023/06/15 07:52:59;;;;;;;10.40;4.13;;;35.00;54.20;;;;;;5005764;28;20200;-63
2023/06/15 07:55:26;;;;;;;12.55;4.35;;;37.10;54.70;;;;;;5001161;28;20212;-63
2023/06/15 07:57:53;;;;;;;8.27;4.43;;;35.40;51.30;;;;;;5018660;28;20243;-62
2023/06/15 08:00:22;;;;;;;6.72;3.60;;;31.90;48.20;;;;;;5004186;28;20201;-63
2023/06/15 08:02:58;;;;;;;10.55;4.43;;;33.40;56.30;;;;;;5004103;28;20677;-63
2023/06/15 08:05:25;;;;;;;5.40;3.70;;;37.00;53.80;;;;;;5004924;28;20633;-63
2023/06/15 08:07:52;;;;;;;6.50;4.07;;;36.50;52.10;;;;;;5021221;28;20236;-63
2023/06/15 08:10:19;;;;;;;8.85;4.03;;;35.40;51.60;;;;;;5003073;28;20669;-63
2023/06/15 08:12:46;;;;;;;7.40;3.30;;;36.00;54.50;;;;;;5004751;28;20340;-62
2023/06/15 08:15:13;;;;;;;4.68;3.67;;;35.60;52.30;;;;;;5005180;28;20637;-62
2023/06/15 08:17:40;;;;;;;10.10;3.97;;;34.60;53.20;;;;;;4999231;28;20329;-63
2023/06/15 08:20:09;;;;;;;4.32;2.90;;;35.10;53.60;;;;;;5003852;28;20211;-63
2023/06/15 08:22:36;;;;;;;5.93;3.03;;;35.70;53.00;;;;;;5020432;28;20201;-63
2023/06/15 08:25:05;;;;;;;7.60;3.25;;;35.60;52.00;;;;;;5004802;28;20177;-63
2023/06/15 08:27:32;;;;;;;3.80;2.88;;;36.50;51.40;;;;;;5000267;28;20196;-63
2023/06/15 08:29:59;;;;;;;5.18;3.83;;;37.50;48.60;;;;;;5001001;28;20307;-63
2023/06/15 08:32:26;;;;;;;6.57;2.92;;;36.30;50.70;;;;;;5006086;28;20227;-62
2023/06/15 08:34:53;;;;;;;6.82;3.70;;;37.10;47.20;;;;;;5005538;28;20859;-63
2023/06/15 08:37:21;;;;;;;8.20;3.50;;;37.90;48.80;;;;;;5005120;28;20291;-63
2023/06/15 08:39:47;;;;;;;5.03;2.72;;;38.70;47.80;;;;;;5002184;28;20192;-63
2023/06/15 08:42:17;;;;;;;4.22;2.83;;;38.60;45.50;;;;;;5017402;28;20668;-62
2023/06/15 08:44:47;;;;;;;5.25;2.72;;;39.60;43.70;;;;;;5008119;28;20264;-62
2023/06/15 08:47:15;;;;;;;3.72;2.50;;;37.80;40.20;;;;;;5005338;28;20675;-62
2023/06/15 08:49:44;;;;;;;11.80;3.35;;;39.90;43.40;;;;;;5005189;28;20226;-62
2023/06/15 08:52:13;;;;;;;6.57;2.58;;;41.30;43.00;;;;;;5000441;28;20788;-62
2023/06/15 08:54:42;;;;;;;6.28;3.13;;;41.70;40.50;;;;;;5005003;28;20193;-63
2023/06/15 08:57:09;;;;;;;4.80;2.35;;;42.30;40.60;;;;;;5002134;28;20197;-62
2023/06/15 08:59:37;;;;;;;2.83;2.13;;;42.80;37.40;;;;;;5006046;28;20219;-63
2023/06/15 09:02:07;;;;;;;5.82;3.03;;;42.90;36.70;;;;;;5002529;28;20192;-63
2023/06/15 09:04:34;;;;;;;4.10;3.00;;;41.20;33.30;;;;;;5019537;28;20224;-63
2023/06/15 09:07:03;;;;;;;3.70;3.25;;;40.10;34.50;;;;;;5003022;28;20250;-62
2023/06/15 09:09:30;;;;;;;3.95;3.15;;;38.80;32.20;;;;;;5003212;28;20231;-63
2023/06/15 09:11:57;;;;;;;5.80;3.33;;;38.20;31.40;;;;;;5002446;28;20192;-62
2023/06/15 09:14:24;;;;;;;7.55;3.28;;;37.10;34.30;;;;;;5003743;28;20189;-62
2023/06/15 09:16:51;;;;;;;11.20;3.50;;;37.50;34.40;;;;;;5004830;28;20683;-62
2023/06/15 09:19:19;;;;;;;7.82;4.25;;;38.40;33.60;;;;;;5003055;28;20192;-62
2023/06/15 09:21:51;;;;;;;6.50;3.45;;;36.30;26.10;;;;;;5017345;28;20200;-62
2023/06/15 09:24:21;;;;;;;3.72;3.03;;;35.30;32.30;;;;;;5002862;28;20640;-62
2023/06/15 09:26:48;;;;;;;3.40;2.72;;;35.00;30.10;;;;;;5012018;28;20197;-62
2023/06/15 09:29:16;;;;;;;8.68;4.18;;;35.40;32.30;;;;;;5004892;28;20184;-62
2023/06/15 09:31:43;;;;;;;6.72;3.63;;;36.40;31.00;;;;;;5000265;28;20196;-62
2023/06/15 09:34:12;;;;;;;5.45;3.03;;;37.00;31.40;;;;;;5005627;28;20204;-63
2023/06/15 09:36:44;;;;;;;5.30;3.20;;;35.30;31.50;;;;;;5016397;28;20215;-62
2023/06/15 09:39:13;;;;;;;3.10;2.80;;;33.90;28.40;;;;;;5003169;28;20196;-62
2023/06/15 09:41:51;;;;;;;5.40;3.22;;;34.40;31.70;;;;;;5007914;28;20192;-58
2023/06/15 09:44:21;;;;;;;3.20;2.80;;;34.60;30.30;;;;;;5008132;28;20189;-58
2023/06/15 09:46:50;;;;;;;3.55;2.72;;;35.90;32.80;;;;;;5023951;28;20196;-59
2023/06/15 09:49:23;;;;;;;3.65;2.42;;;37.20;29.80;;;;;;5008443;28;20197;-62
2023/06/15 09:51:50;;;;;;;2.92;2.63;;;37.00;28.40;;;;;;5007318;28;20197;-62
2023/06/15 09:54:22;;;;;;;4.60;2.42;;;35.30;30.60;;;;;;5003917;28;20208;-62
2023/06/15 09:56:50;;;;;;;3.45;2.53;;;36.20;29.30;;;;;;5004464;28;20240;-62
2023/06/15 09:59:19;;;;;;;3.70;2.60;;;36.40;28.40;;;;;;5005506;28;20730;-63
2023/06/15 10:01:48;;;;;;;5.65;3.35;;;36.80;29.90;;;;;;5006290;28;20193;-63
2023/06/15 10:04:17;;;;;;;3.63;2.80;;;37.50;28.00;;;;;;5005903;28;20731;-63
2023/06/15 10:06:49;;;;;;;7.18;3.08;;;35.80;24.90;;;;;;5004257;28;20200;-63
2023/06/15 10:09:23;;;;;;;3.40;2.28;;;35.00;29.30;;;;;;5002364;28;20969;-63
2023/06/15 10:11:52;;;;;;;3.85;2.78;;;35.00;29.80;;;;;;5001812;28;20962;-63
2023/06/15 10:14:27;;;;;;;5.60;2.80;;;34.10;28.80;;;;;;5004621;28;20232;-63
2023/06/15 10:16:59;;;;;;;3.83;3.17;;;33.80;29.40;;;;;;5036738;28;20212;-62
2023/06/15 10:19:31;;;;;;;8.57;3.10;;;32.50;30.00;;;;;;5002240;28;20212;-62
2023/06/15 10:21:58;;;;;;;8.30;3.05;;;33.20;31.00;;;;;;5006973;28;20688;-63
2023/06/15 10:24:26;;;;;;;5.07;3.38;;;33.90;29.90;;;;;;4996167;28;20197;-62
2023/06/15 10:26:54;;;;;;;3.05;2.60;;;31.50;24.60;;;;;;4999944;28;20205;-63
2023/06/15 10:29:38;;;;;;;2.80;2.60;;;32.70;28.90;;;;;;5006044;28;20570;-67
2023/06/15 10:32:26;;;;;;;4.20;3.00;;;33.50;29.40;;;;;;5018521;28;20208;-63
2023/06/15 10:35:08;;;;;;;5.40;3.00;;;32.50;28.50;;;;;;5004923;28;20267;-63
2023/06/15 10:37:59;;;;;;;5.82;3.30;;;33.20;30.70;;;;;;5005720;28;20280;-62
2023/06/15 10:40:32;;;;;;;6.28;4.13;;;34.00;30.20;;;;;;5003818;28;20208;-63
2023/06/15 10:43:02;;;;;;;5.45;3.30;;;33.50;28.90;;;;;;5004214;28;20292;-63
2023/06/15 10:45:32;;;;;;;5.45;3.35;;;34.60;28.20;;;;;;5020580;28;20860;-63
2023/06/15 10:48:02;;;;;;;5.20;3.17;;;34.20;28.70;;;;;;5000948;28;20205;-63
2023/06/15 10:50:39;;;;;;;4.05;2.88;;;34.20;26.60;;;;;;4999617;28;20270;-62
2023/06/15 10:53:23;;;;;;;12.40;3.63;;;33.20;27.60;;;;;;5005065;28;20193;-62
2023/06/15 10:55:57;;;;;;;7.22;3.20;;;31.10;25.90;;;;;;5002245;28;20189;-58
2023/06/15 10:58:27;;;;;;;5.50;3.20;;;30.50;47.40;;;;;;5022752;28;20200;-59
2023/06/15 11:01:04;;;;;;;8.18;2.92;;;31.80;31.00;;;;;;5004942;28;20218;-58
2023/06/15 11:03:32;;;;;;;7.68;2.45;;;32.70;26.80;;;;;;5005437;28;20294;-59
2023/06/15 11:06:16;;;;;;;5.53;3.55;;;33.90;29.10;;;;;;5007994;28;20197;-58
2023/06/15 11:08:52;;;;;;;4.20;2.60;;;33.30;28.50;;;;;;5006866;28;20902;-60
2023/06/15 11:11:30;;;;;;;3.70;2.30;;;32.60;28.50;;;;;;5005321;28;20376;-59
2023/06/15 11:14:04;;;;;;;2.40;2.10;;;32.70;29.90;;;;;;5006369;28;20687;-59
2023/06/15 11:16:35;;;;;;;3.05;2.55;;;32.10;28.40;;;;;;5007892;28;20209;-59
2023/06/15 11:19:12;;;;;;;3.03;2.70;;;31.70;28.40;;;;;;5008612;28;20197;-59
2023/06/15 11:21:47;;;;;;;4.28;2.47;;;31.40;28.50;;;;;;5008558;28;20199;-58
2023/06/15 11:24:15;;;;;;;3.08;2.60;;;31.50;32.00;;;;;;5002364;28;20204;-58
2023/06/15 11:26:44;;;;;;;3.40;2.42;;;31.80;29.40;;;;;;5003898;28;20193;-59
2023/06/15 11:29:16;;;;;;;4.18;2.28;;;31.80;49.70;;;;;;5000310;28;20240;-63
2023/06/15 11:31:43;;;;;;;5.75;2.22;;;31.70;29.00;;;;;;5004876;28;20211;-62
2023/06/15 11:34:10;;;;;;;5.57;2.78;;;31.20;29.30;;;;;;4999535;28;20808;-59
2023/06/15 11:36:38;;;;;;;3.85;2.40;;;30.80;26.80;;;;;;5014164;28;20220;-58
2023/06/15 11:39:05;;;;;;;4.65;2.30;;;30.20;28.30;;;;;;4995954;28;20674;-58
2023/06/15 11:41:32;;;;;;;2.58;1.88;;;29.70;28.10;;;;;;5003145;28;20561;-59
2023/06/15 11:44:00;;;;;;;4.60;2.38;;;30.50;29.50;;;;;;5002303;28;20225;-58
2023/06/15 11:46:27;;;;;;;3.00;2.33;;;31.10;26.30;;;;;;5003805;28;20289;-62
2023/06/15 11:48:56;;;;;;;4.15;2.75;;;31.50;26.20;;;;;;5001677;28;20234;-63
2023/06/15 11:51:25;;;;;;;4.78;2.50;;;30.50;24.00;;;;;;5001957;28;20557;-62
2023/06/15 11:53:53;;;;;;;3.90;2.65;;;29.50;26.10;;;;;;5004570;28;20610;-62
2023/06/15 11:56:21;;;;;;;3.83;3.00;;;29.80;29.20;;;;;;4996576;28;20283;-62
2023/06/15 11:58:49;;;;;;;4.45;2.70;;;30.80;29.80;;;;;;5000326;28;20189;-62
2023/06/15 12:01:18;;;;;;;2.85;2.30;;;31.50;27.60;;;;;;5005126;28;20556;-62
2023/06/15 12:03:47;;;;;;;5.97;2.40;;;31.70;26.00;;;;;;4995529;28;20300;-62
2023/06/15 12:06:30;;;;;;;2.08;1.88;;;32.90;26.50;;;;;;5005252;28;20255;-63
2023/06/15 12:08:58;;;;;;;2.30;1.80;;;34.60;23.30;;;;;;5000697;28;20237;-63
2023/06/15 12:11:26;;;;;;;1.67;1.58;;;35.10;23.70;;;;;;4999783;28;20566;-65
2023/06/15 12:13:59;;;;;;;2.20;2.00;;;35.10;24.10;;;;;;5004664;28;20209;-62
2023/06/15 12:16:26;;;;;;;2.58;1.83;;;35.10;26.00;;;;;;4999382;28;20212;-62
2023/06/15 12:18:54;;;;;;;4.28;2.53;;;34.80;23.70;;;;;;5021405;28;20204;-62
2023/06/15 12:21:21;;;;;;;2.75;2.10;;;33.80;25.60;;;;;;5019867;28;20307;-62
2023/06/15 12:23:50;;;;;;;2.75;2.13;;;32.80;24.20;;;;;;5005279;28;20184;-62
2023/06/15 12:26:22;;;;;;;2.45;2.05;;;31.40;25.30;;;;;;5004269;28;20238;-62
2023/06/15 12:28:52;;;;;;;3.25;2.00;;;30.90;26.90;;;;;;5005145;28;20189;-62
2023/06/15 12:31:19;;;;;;;4.70;2.42;;;31.30;26.70;;;;;;5006123;28;20189;-62
2023/06/15 12:33:50;;;;;;;3.25;2.38;;;31.10;26.10;;;;;;4982424;28;20185;-62
2023/06/15 12:36:20;;;;;;;4.35;2.13;;;30.20;26.70;;;;;;5003694;28;20203;-62
2023/06/15 12:38:48;;;;;;;2.50;2.03;;;30.40;28.10;;;;;;4994252;28;20205;-61
2023/06/15 12:41:16;;;;;;;4.13;2.08;;;30.30;27.50;;;;;;5004660;28;20197;-61
2023/06/15 12:43:45;;;;;;;6.47;2.22;;;29.30;27.60;;;;;;5020527;28;20300;-62
2023/06/15 12:46:12;;;;;;;3.75;2.33;;;29.10;28.60;;;;;;5001506;28;20193;-61
2023/06/15 12:48:40;;;;;;;2.83;2.17;;;29.40;28.30;;;;;;5000748;28;20666;-62
2023/06/15 12:51:07;;;;;;;3.85;2.08;;;29.20;28.20;;;;;;5002103;28;20977;-61
2023/06/15 12:53:34;;;;;;;5.13;2.40;;;29.20;29.10;;;;;;5002477;28;20581;-61
2023/06/15 12:56:01;;;;;;;2.85;2.38;;;29.60;29.40;;;;;;4997796;28;20271;-62